Time;durP1;ratioP1;P1;durP2;ratioP2;P2;SDS_P1;SDS_P2;PMS_P1;PMS_P2;Temp;Humidity;BMP_temperature;BMP_pressure;BME280_temperature;BME280_humidity;BME280_pressure;Samples;Min_cycle;Max_cycle;Signal;HPM_P1;HPM_P2
2024/04/13 00:00:17;;;;;;;;;17.00;15.75;;;;;18.78;75.18;102433.78;5253140;27;43907;-69
2024/04/13 00:02:43;;;;;;;;;17.25;16.50;;;;;18.79;75.45;102435.50;5252929;27;44430;-69
2024/04/13 00:05:09;;;;;;;;;12.75;12.50;;;;;18.59;74.84;102406.56;5223226;27;43920;-69
2024/04/13 00:07:35;;;;;;;;;12.25;11.50;;;;;18.62;74.88;102422.66;5252686;27;44104;-69
2024/04/13 00:10:01;;;;;;;;;16.75;15.75;;;;;18.63;74.77;102413.63;5250253;27;44169;-69
2024/04/13 00:12:27;;;;;;;;;16.25;16.00;;;;;18.74;75.62;102443.81;5252446;27;44600;-69
2024/04/13 00:14:52;;;;;;;;;14.25;14.25;;;;;18.63;75.74;102422.59;5252375;27;44429;-69
2024/04/13 00:17:17;;;;;;;;;17.25;16.00;;;;;18.46;75.81;102404.34;5233394;27;44046;-69
2024/04/13 00:19:45;;;;;;;;;15.50;15.00;;;;;18.55;76.01;102422.03;5252561;27;43860;-70
2024/04/13 00:22:11;;;;;;;;;19.00;17.50;;;;;18.44;75.58;102410.75;5239763;27;45320;-69
2024/04/13 00:24:37;;;;;;;;;15.50;15.50;;;;;18.46;75.63;102406.16;5222989;27;43929;-69
2024/04/13 00:27:02;;;;;;;;;16.75;16.00;;;;;18.40;75.20;102404.56;5252515;27;44026;-69
2024/04/13 00:29:29;;;;;;;;;17.50;16.25;;;;;18.39;75.97;102397.38;5252276;27;43938;-69
2024/04/13 00:31:54;;;;;;;;;15.50;14.25;;;;;18.40;75.46;102409.13;5252286;27;44737;-70
2024/04/13 00:34:19;;;;;;;;;17.50;14.50;;;;;18.45;75.38;102415.22;5252494;27;43996;-69
2024/04/13 00:36:46;;;;;;;;;15.50;15.00;;;;;18.31;75.64;102397.72;5252293;27;43895;-69
2024/04/13 00:39:12;;;;;;;;;17.00;15.00;;;;;18.30;76.60;102401.34;5252199;27;44358;-70
2024/04/13 00:41:37;;;;;;;;;16.00;15.25;;;;;18.36;75.57;102410.16;5221073;27;47099;-69
2024/04/13 00:44:03;;;;;;;;;16.00;15.00;;;;;18.25;76.23;102399.78;5251943;27;43838;-69
2024/04/13 00:46:31;;;;;;;;;21.25;19.75;;;;;18.26;76.81;102404.22;5252208;27;43842;-69
2024/04/13 00:48:59;;;;;;;;;15.00;14.75;;;;;18.34;75.76;102412.91;5210898;27;44109;-69
2024/04/13 00:51:27;;;;;;;;;18.75;14.50;;;;;18.24;75.51;102407.00;5240968;27;44145;-69
2024/04/13 00:53:53;;;;;;;;;17.50;17.25;;;;;18.29;76.81;102415.81;5251647;27;44085;-69
2024/04/13 00:56:21;;;;;;;;;16.50;16.50;;;;;18.21;76.14;102401.72;5251972;27;43885;-69
2024/04/13 00:58:48;;;;;;;;;17.75;16.50;;;;;18.23;76.74;102401.66;5252764;27;43990;-69
2024/04/13 01:01:15;;;;;;;;;17.00;16.50;;;;;18.08;76.89;102382.38;5251710;27;44769;-69
2024/04/13 01:03:43;;;;;;;;;13.50;12.75;;;;;18.06;76.51;102369.84;5223771;27;43989;-69
2024/04/13 01:06:10;;;;;;;;;17.00;14.50;;;;;18.07;77.23;102367.09;5255019;27;43897;-69
2024/04/13 01:08:36;;;;;;;;;17.50;14.75;;;;;18.11;77.21;102368.75;5254624;27;43795;-69
2024/04/13 01:11:02;;;;;;;;;16.50;13.50;;;;;18.23;76.90;102385.44;5251597;27;53988;-70
2024/04/13 01:13:27;;;;;;;;;17.50;16.00;;;;;17.98;77.27;102342.25;5254530;27;43980;-69
2024/04/13 01:15:53;;;;;;;;;15.25;14.50;;;;;18.18;77.42;102391.00;5234148;27;44155;-69
2024/04/13 01:18:18;;;;;;;;;13.25;13.00;;;;;18.07;76.47;102371.63;5221245;27;51250;-69
2024/04/13 01:20:43;;;;;;;;;14.00;14.00;;;;;18.05;76.90;102365.41;5220629;27;44972;-70
2024/04/13 01:23:11;;;;;;;;;15.00;13.50;;;;;17.91;76.26;102352.41;5220596;27;43861;-69
2024/04/13 01:25:40;;;;;;;;;16.75;15.50;;;;;18.10;76.87;102382.31;5220860;27;43888;-69
2024/04/13 01:28:06;;;;;;;;;13.50;12.00;;;;;17.95;77.62;102360.31;5220714;27;43913;-69
2024/04/13 01:30:34;;;;;;;;;18.75;14.25;;;;;18.00;77.34;102376.38;5220811;27;44575;-70
2024/04/13 01:32:59;;;;;;;;;15.75;15.50;;;;;17.99;77.05;102371.03;5191542;27;44267;-69
2024/04/13 01:35:25;;;;;;;;;12.75;12.75;;;;;17.95;77.28;102365.72;5220776;27;43904;-70
2024/04/13 01:37:51;;;;;;;;;13.25;12.25;;;;;17.99;77.55;102377.31;5220963;27;43908;-70
2024/04/13 01:40:16;;;;;;;;;14.50;14.25;;;;;17.98;76.90;102378.25;5217529;27;46383;-69
2024/04/13 01:42:42;;;;;;;;;18.00;13.50;;;;;17.97;77.75;102371.06;5220756;27;43883;-69
2024/04/13 01:45:08;;;;;;;;;15.25;15.00;;;;;18.04;77.25;102387.94;5221105;27;43904;-69
2024/04/13 01:47:34;;;;;;;;;15.75;15.00;;;;;17.97;77.55;102368.38;5219472;27;44008;-70
2024/04/13 01:49:59;;;;;;;;;18.50;17.50;;;;;17.98;77.88;102367.44;5219034;27;43880;-69
2024/04/13 01:52:25;;;;;;;;;15.75;15.75;;;;;17.89;77.82;102355.19;5191287;27;43861;-69
2024/04/13 01:54:50;;;;;;;;;16.00;16.00;;;;;17.88;77.72;102355.22;5220709;27;43776;-69
2024/04/13 01:57:16;;;;;;;;;16.75;14.75;;;;;17.88;77.14;102356.09;5220844;27;43778;-69
2024/04/13 01:59:42;;;;;;;;;16.50;15.25;;;;;17.96;77.48;102377.44;5220395;27;52185;-69
2024/04/13 02:02:10;;;;;;;;;13.50;12.75;;;;;17.98;77.78;102388.19;5220962;27;43756;-69
2024/04/13 02:04:36;;;;;;;;;14.75;14.25;;;;;17.86;77.71;102370.56;5220527;27;44343;-69
2024/04/13 02:07:01;;;;;;;;;15.00;14.75;;;;;17.85;77.32;102375.09;5191103;27;44223;-70
2024/04/13 02:09:28;;;;;;;;;15.00;12.75;;;;;17.76;77.94;102361.94;5187768;27;45143;-70
2024/04/13 02:11:53;;;;;;;;;15.00;13.75;;;;;17.74;78.21;102370.09;5189292;27;44127;-69
2024/04/13 02:14:19;;;;;;;;;14.75;14.50;;;;;17.89;78.08;102393.00;5218236;27;44393;-69
2024/04/13 02:16:44;;;;;;;;;15.50;14.75;;;;;17.92;77.89;102394.69;5184106;27;43951;-69
2024/04/13 02:19:09;;;;;;;;;14.50;13.50;;;;;17.80;77.62;102373.50;5215313;27;50266;-70
2024/04/13 02:21:35;;;;;;;;;13.75;12.25;;;;;17.85;77.90;102388.59;5196620;27;43940;-69
2024/04/13 02:24:01;;;;;;;;;16.00;13.50;;;;;17.74;78.31;102377.28;5181441;27;43858;-69
2024/04/13 02:26:28;;;;;;;;;15.25;12.75;;;;;17.80;78.02;102387.88;5219157;27;43800;-69
2024/04/13 02:28:53;;;;;;;;;15.25;14.00;;;;;17.83;78.48;102393.19;5218864;27;43977;-69
2024/04/13 02:31:19;;;;;;;;;13.50;12.50;;;;;17.70;78.67;102379.22;5208925;27;43980;-69
2024/04/13 02:33:44;;;;;;;;;12.25;11.50;;;;;17.83;78.21;102403.13;5220544;27;43826;-69
2024/04/13 02:36:09;;;;;;;;;13.50;13.50;;;;;17.84;78.09;102402.16;5187147;27;44239;-69
2024/04/13 02:38:35;;;;;;;;;12.00;11.50;;;;;17.68;78.96;102386.50;5179812;27;46871;-69
2024/04/13 02:41:02;;;;;;;;;13.75;13.50;;;;;17.63;78.68;102372.31;5190863;27;45269;-70
2024/04/13 02:43:31;;;;;;;;;13.00;10.75;;;;;17.59;77.63;102371.53;5217115;27;43844;-70
2024/04/13 02:46:03;;;;;;;;;15.25;13.50;;;;;17.61;78.61;102371.47;5219536;27;43833;-70
2024/04/13 02:48:28;;;;;;;;;15.00;13.50;;;;;17.58;78.01;102371.59;5214391;27;44201;-70
2024/04/13 02:50:55;;;;;;;;;14.00;14.00;;;;;17.60;78.72;102365.19;5229379;27;43966;-70
2024/04/13 02:53:20;;;;;;;;;14.25;13.00;;;;;17.70;78.44;102386.47;5188562;27;43778;-69
2024/04/13 02:55:46;;;;;;;;;11.50;11.00;;;;;17.48;78.75;102356.66;5200195;27;43853;-69
2024/04/13 02:58:11;;;;;;;;;7.50;7.50;;;;;17.57;79.16;102373.41;5216673;27;44764;-69
2024/04/13 03:00:36;;;;;;;;;14.00;14.00;;;;;17.51;78.26;102365.53;5178569;27;43940;-69
2024/04/13 03:03:02;;;;;;;;;11.00;11.00;;;;;17.66;78.22;102391.09;5220187;27;43852;-69
2024/04/13 03:05:27;;;;;;;;;14.50;14.50;;;;;17.59;78.84;102378.72;5189537;27;44875;-69
2024/04/13 03:07:53;;;;;;;;;12.25;11.25;;;;;17.56;79.08;102370.78;5218651;27;43972;-69
2024/04/13 03:10:18;;;;;;;;;15.75;15.50;;;;;17.54;78.60;102375.31;5219214;27;43916;-69
2024/04/13 03:12:43;;;;;;;;;13.00;13.00;;;;;17.30;78.94;102334.75;5218392;27;43972;-70
2024/04/13 03:15:09;;;;;;;;;15.50;14.25;;;;;17.41;78.75;102350.59;5218976;27;43900;-69
2024/04/13 03:17:34;;;;;;;;;13.50;12.50;;;;;17.38;78.82;102346.16;5216054;27;44134;-70
2024/04/13 03:20:00;;;;;;;;;14.75;14.25;;;;;17.52;79.20;102374.50;5217415;27;45624;-69
2024/04/13 03:22:25;;;;;;;;;15.50;12.75;;;;;17.30;79.11;102337.47;5207318;27;43990;-69
2024/04/13 03:24:51;;;;;;;;;14.25;13.50;;;;;17.36;79.13;102336.38;5218233;27;44133;-70
2024/04/13 03:27:17;;;;;;;;;12.00;11.50;;;;;17.30;79.19;102337.47;5215919;27;46016;-69
2024/04/13 03:29:42;;;;;;;;;13.75;13.50;;;;;17.17;79.54;102304.66;5174935;27;43978;-69
2024/04/13 03:32:08;;;;;;;;;15.25;14.00;;;;;17.37;78.89;102336.34;5214219;27;43852;-69
2024/04/13 03:34:33;;;;;;;;;13.25;12.50;;;;;17.44;79.50;102349.59;5216915;27;44711;-70
2024/04/13 03:37:00;;;;;;;;;13.75;13.75;;;;;17.30;78.94;102328.50;5218697;27;45192;-69
2024/04/13 03:39:27;;;;;;;;;14.50;13.50;;;;;17.47;79.14;102354.88;5216416;27;44129;-69
2024/04/13 03:41:53;;;;;;;;;14.25;11.75;;;;;17.35;78.89;102321.13;5219701;27;44034;-69
2024/04/13 03:44:19;;;;;;;;;10.75;10.00;;;;;17.37;79.22;102332.72;5217646;27;43837;-69
2024/04/13 03:46:44;;;;;;;;;13.00;12.50;;;;;17.31;79.13;102323.03;5188641;27;46787;-69
2024/04/13 03:49:10;;;;;;;;;17.00;14.25;;;;;17.41;79.42;102332.56;5218303;27;43907;-69
2024/04/13 03:51:35;;;;;;;;;14.50;12.75;;;;;17.27;79.99;102305.19;5210411;27;43982;-70
2024/04/13 03:54:01;;;;;;;;;14.50;13.75;;;;;17.37;79.68;102328.22;5217712;27;44099;-69
2024/04/13 03:56:26;;;;;;;;;18.00;16.50;;;;;17.34;79.56;102327.44;5219120;27;44451;-69
2024/04/13 03:58:52;;;;;;;;;14.75;14.75;;;;;17.23;79.85;102304.41;5210024;27;43864;-69
2024/04/13 04:01:17;;;;;;;;;16.00;14.75;;;;;17.28;79.79;102308.78;5210049;27;43880;-69
2024/04/13 04:03:43;;;;;;;;;14.50;12.25;;;;;17.22;79.62;102296.38;5217570;27;44037;-69
2024/04/13 04:06:08;;;;;;;;;13.25;13.00;;;;;17.18;79.71;102294.72;5219014;27;44201;-69
2024/04/13 04:08:33;;;;;;;;;12.50;12.50;;;;;17.36;79.69;102320.19;5215701;27;43889;-69
2024/04/13 04:10:59;;;;;;;;;13.00;13.00;;;;;17.19;79.65;102289.28;5169652;27;43922;-69
2024/04/13 04:13:24;;;;;;;;;12.25;12.25;;;;;17.32;79.97;102319.38;5216254;27;44083;-69
2024/04/13 04:15:51;;;;;;;;;16.50;15.50;;;;;17.30;80.16;102313.19;5218666;27;50408;-69
2024/04/13 04:18:17;;;;;;;;;13.00;12.25;;;;;17.15;79.54;102289.44;5217819;27;44110;-69
2024/04/13 04:20:45;;;;;;;;;15.25;14.00;;;;;17.16;79.71;102291.22;5218088;27;44148;-69
2024/04/13 04:23:11;;;;;;;;;13.75;13.00;;;;;17.18;79.74;102300.13;5203302;27;44952;-69
2024/04/13 04:25:36;;;;;;;;;16.25;14.50;;;;;17.15;79.82;102286.75;5216898;27;45379;-69
2024/04/13 04:28:02;;;;;;;;;14.50;13.50;;;;;17.22;79.94;102301.78;5210198;27;44002;-69
2024/04/13 04:30:27;;;;;;;;;13.50;13.50;;;;;17.15;79.73;102281.34;5214939;27;43908;-69
2024/04/13 04:32:53;;;;;;;;;16.25;15.00;;;;;17.14;79.14;102285.88;5217493;27;44210;-69
2024/04/13 04:35:18;;;;;;;;;14.50;14.50;;;;;17.10;79.95;102277.94;5217428;27;45079;-69
2024/04/13 04:37:44;;;;;;;;;16.25;15.25;;;;;17.23;79.93;102303.53;5217804;27;45767;-69
2024/04/13 04:40:09;;;;;;;;;10.75;10.75;;;;;17.15;80.47;102286.75;5218937;27;43948;-69
2024/04/13 04:42:35;;;;;;;;;14.75;14.75;;;;;17.17;79.57;102287.56;5219566;27;43910;-69
2024/04/13 04:45:01;;;;;;;;;16.00;16.00;;;;;17.29;80.00;102314.13;5218969;27;44156;-69
2024/04/13 04:47:27;;;;;;;;;16.25;14.00;;;;;17.19;80.04;102302.78;5220395;27;45405;-70
2024/04/13 04:49:52;;;;;;;;;16.00;14.00;;;;;17.10;80.09;102292.28;5196131;27;44062;-70
2024/04/13 04:52:18;;;;;;;;;15.50;13.50;;;;;17.16;80.04;102296.63;5219043;27;43773;-69
2024/04/13 04:54:44;;;;;;;;;15.75;15.25;;;;;17.05;79.79;102288.88;5219451;27;43912;-69
2024/04/13 04:57:09;;;;;;;;;18.75;15.75;;;;;17.15;79.77;102294.84;5189270;27;44227;-70
2024/04/13 04:59:35;;;;;;;;;13.00;12.00;;;;;17.19;80.24;102305.47;5219709;27;43924;-69
2024/04/13 05:02:00;;;;;;;;;18.00;16.25;;;;;17.11;80.31;102293.19;5218139;27;43901;-69
2024/04/13 05:04:26;;;;;;;;;14.25;12.25;;;;;17.08;80.50;102287.91;5190366;27;44060;-69
2024/04/13 05:06:52;;;;;;;;;14.50;13.75;;;;;17.06;80.35;102290.66;5188795;27;44376;-69
2024/04/13 05:09:18;;;;;;;;;14.25;14.25;;;;;17.16;79.81;102318.19;5198855;27;43999;-69
2024/04/13 05:11:43;;;;;;;;;13.00;13.00;;;;;16.98;80.63;102293.59;5220622;27;46026;-69
2024/04/13 05:14:10;;;;;;;;;16.00;14.75;;;;;16.98;80.61;102290.03;5190433;27;44832;-69
2024/04/13 05:16:39;;;;;;;;;15.25;15.25;;;;;16.96;80.62;102303.56;5250451;27;43860;-69
2024/04/13 05:19:04;;;;;;;;;18.00;18.00;;;;;17.04;80.69;102314.09;5254904;27;44122;-69
2024/04/13 05:21:30;;;;;;;;;15.75;13.25;;;;;16.86;81.13;102288.66;5217147;27;44150;-69
2024/04/13 05:23:56;;;;;;;;;14.75;13.50;;;;;16.88;80.66;102297.56;5244570;27;43994;-70
2024/04/13 05:26:21;;;;;;;;;18.00;14.00;;;;;16.89;81.18;102298.44;5251074;27;44238;-69
2024/04/13 05:28:47;;;;;;;;;16.00;14.25;;;;;16.89;80.80;102306.53;5252176;27;44049;-69
2024/04/13 05:31:12;;;;;;;;;15.00;15.00;;;;;16.85;81.14;102301.22;5223747;27;44471;-69
2024/04/13 05:33:38;;;;;;;;;17.75;15.50;;;;;16.85;81.11;102301.22;5253509;27;45002;-70
2024/04/13 05:36:04;;;;;;;;;17.50;17.25;;;;;16.88;80.32;102310.16;5253728;27;43903;-70
2024/04/13 05:38:32;;;;;;;;;20.50;18.00;;;;;16.82;80.89;102298.63;5250709;27;44184;-69
2024/04/13 05:40:58;;;;;;;;;16.50;15.25;;;;;16.85;80.47;102311.13;5254493;27;43887;-69
2024/04/13 05:43:24;;;;;;;;;15.75;15.75;;;;;16.97;81.36;102345.81;5246605;27;46170;-70
2024/04/13 05:45:50;;;;;;;;;16.25;15.50;;;;;16.85;80.78;102324.63;5253001;27;44158;-70
2024/04/13 05:48:16;;;;;;;;;15.00;15.00;;;;;16.83;81.05;102329.16;5252122;27;43863;-70
2024/04/13 05:50:41;;;;;;;;;19.00;18.00;;;;;16.91;80.76;102351.41;5237134;27;43972;-69
2024/04/13 05:53:06;;;;;;;;;16.00;15.75;;;;;16.73;81.03;102323.19;5252656;27;55985;-69
2024/04/13 05:55:35;;;;;;;;;15.50;15.00;;;;;16.76;80.83;102335.69;5245977;27;44239;-69
2024/04/13 05:58:00;;;;;;;;;17.00;16.75;;;;;16.85;80.89;102346.19;5213246;27;44083;-69
2024/04/13 06:00:25;;;;;;;;;18.50;18.00;;;;;16.72;81.41;102325.94;5214398;27;43885;-69
2024/04/13 06:02:50;;;;;;;;;18.75;17.75;;;;;16.63;80.44;102319.91;5250369;27;54261;-69
2024/04/13 06:05:16;;;;;;;;;15.50;14.00;;;;;16.76;81.41;102341.09;5246017;27;44122;-69
2024/04/13 06:07:43;;;;;;;;;16.50;14.00;;;;;16.71;81.75;102335.84;5251420;27;43892;-70
2024/04/13 06:10:09;;;;;;;;;14.75;14.75;;;;;16.87;81.02;102362.34;5251292;27;46211;-70
2024/04/13 06:12:34;;;;;;;;;18.00;16.75;;;;;16.68;81.29;102326.03;5222656;27;45868;-72
2024/04/13 06:15:00;;;;;;;;;17.00;17.00;;;;;16.85;80.81;102359.69;5251983;27;44113;-75
2024/04/13 06:17:25;;;;;;;;;20.00;18.75;;;;;16.77;81.46;102346.44;5211340;27;44055;-75
2024/04/13 06:19:51;;;;;;;;;19.00;17.50;;;;;16.62;81.69;102328.03;5232903;27;43934;-76
2024/04/13 06:22:23;;;;;;;;;16.25;16.25;;;;;16.76;81.96;102346.50;5206635;27;56999;-76
2024/04/13 06:24:52;;;;;;;;;17.00;17.00;;;;;16.64;81.41;102324.38;5236037;27;44001;-76
2024/04/13 06:27:18;;;;;;;;;20.25;18.00;;;;;16.75;81.69;102339.31;5241783;27;44138;-75
2024/04/13 06:29:48;;;;;;;;;15.75;15.00;;;;;16.61;81.60;102320.91;5212746;27;44794;-75
2024/04/13 06:32:14;;;;;;;;;18.50;18.50;;;;;16.64;82.38;102329.78;5249070;27;45925;-75
2024/04/13 06:34:39;;;;;;;;;18.50;17.50;;;;;16.76;82.46;102343.78;5237306;27;44085;-75
2024/04/13 06:37:05;;;;;;;;;19.75;19.00;;;;;16.56;81.97;102312.97;5252981;27;43947;-76
2024/04/13 06:39:30;;;;;;;;;25.75;21.75;;;;;16.66;82.79;102329.72;5252663;27;47338;-76
2024/04/13 06:41:55;;;;;;;;;22.75;22.00;;;;;16.62;82.38;102311.88;5244677;27;45122;-72
2024/04/13 06:44:21;;;;;;;;;19.00;19.00;;;;;16.77;82.60;102332.06;5249493;27;43927;-77
2024/04/13 06:46:46;;;;;;;;;20.25;19.25;;;;;16.83;82.77;102331.84;5251874;27;44184;-77
2024/04/13 06:49:11;;;;;;;;;20.75;19.75;;;;;16.83;82.78;102330.03;5245260;27;44077;-74
2024/04/13 06:51:37;;;;;;;;;19.00;18.00;;;;;16.79;82.71;102316.69;5218566;27;45715;-76
2024/04/13 06:54:03;;;;;;;;;24.25;22.00;;;;;16.69;82.67;102302.66;5241077;27;44310;-73
2024/04/13 06:56:28;;;;;;;;;19.75;19.75;;;;;16.76;82.88;102308.72;5251749;27;44033;-73
2024/04/13 06:58:54;;;;;;;;;14.50;14.50;;;;;16.88;82.63;102324.53;5236685;27;44027;-73
2024/04/13 07:01:19;;;;;;;;;19.25;18.50;;;;;16.95;83.09;102336.00;5217825;27;61119;-73
2024/04/13 07:03:44;;;;;;;;;18.75;17.50;;;;;16.98;82.87;102333.19;5251867;27;44009;-74
2024/04/13 07:06:10;;;;;;;;;20.50;20.50;;;;;16.89;83.00;102314.59;5222007;27;44008;-74
2024/04/13 07:08:35;;;;;;;;;18.00;16.25;;;;;16.90;82.73;102308.28;5243870;27;55484;-73
2024/04/13 07:11:00;;;;;;;;;19.25;18.00;;;;;16.91;83.46;102307.38;5239112;27;44004;-74
2024/04/13 07:13:27;;;;;;;;;17.50;17.50;;;;;17.13;82.61;102331.78;5221991;27;43891;-74
2024/04/13 07:15:53;;;;;;;;;20.50;18.25;;;;;16.98;83.14;102295.44;5230735;27;45851;-74
2024/04/13 07:18:19;;;;;;;;;16.25;16.00;;;;;17.07;83.08;102299.63;5182014;27;44105;-74
2024/04/13 07:20:45;;;;;;;;;19.00;17.50;;;;;17.23;82.46;102319.72;5218401;27;44376;-74
2024/04/13 07:23:11;;;;;;;;;18.25;17.75;;;;;17.21;82.31;102310.81;5206657;27;44260;-74
2024/04/13 07:25:36;;;;;;;;;18.00;17.00;;;;;17.28;82.38;102314.19;5205884;27;44007;-73
2024/04/13 07:28:02;;;;;;;;;17.75;15.25;;;;;17.15;83.17;102289.44;5187673;27;45705;-74
2024/04/13 07:30:27;;;;;;;;;16.75;15.50;;;;;17.22;82.06;102299.06;5187618;27;45988;-74
2024/04/13 07:32:53;;;;;;;;;17.25;15.00;;;;;17.25;82.77;102296.25;5180900;27;43977;-71
2024/04/13 07:35:19;;;;;;;;;16.50;15.50;;;;;17.43;82.64;102313.63;5211085;27;44052;-74
2024/04/13 07:37:44;;;;;;;;;16.00;14.25;;;;;17.48;82.44;102314.34;5203529;27;45504;-71
2024/04/13 07:40:09;;;;;;;;;11.25;11.25;;;;;17.39;82.82;102293.06;5204981;27;44089;-70
2024/04/13 07:42:35;;;;;;;;;14.00;14.00;;;;;17.60;82.03;102315.69;5214248;27;44201;-71
2024/04/13 07:45:00;;;;;;;;;12.50;12.00;;;;;17.64;82.16;102316.47;5216070;27;44138;-70
2024/04/13 07:47:25;;;;;;;;;15.50;13.00;;;;;17.62;81.50;102299.44;5178018;27;44261;-72
2024/04/13 07:49:54;;;;;;;;;12.00;12.00;;;;;17.67;81.28;102303.72;5179882;27;48221;-72
2024/04/13 07:52:19;;;;;;;;;14.00;13.25;;;;;17.70;81.64;102303.63;5217907;27;44157;-72
2024/04/13 07:54:45;;;;;;;;;11.50;10.50;;;;;17.82;81.41;102312.19;5188820;27;43899;-72
2024/04/13 07:57:10;;;;;;;;;11.00;10.25;;;;;17.82;81.19;102304.97;5195427;27;44020;-72
2024/04/13 07:59:36;;;;;;;;;11.25;11.25;;;;;17.82;81.14;102285.19;5204880;27;44342;-72
2024/04/13 08:02:01;;;;;;;;;12.75;12.75;;;;;17.96;81.09;102299.09;5215517;27;44269;-72
2024/04/13 08:04:26;;;;;;;;;12.00;11.00;;;;;17.95;80.80;102289.22;5197460;27;43912;-72
2024/04/13 08:06:52;;;;;;;;;12.25;10.50;;;;;18.21;80.87;102317.03;5212502;27;43922;-72
2024/04/13 08:09:17;;;;;;;;;9.75;9.75;;;;;18.11;80.66;102279.56;5158797;27;53234;-71
2024/04/13 08:11:42;;;;;;;;;13.25;10.75;;;;;18.30;81.11;102303.16;5186959;27;47410;-72
2024/04/13 08:14:08;;;;;;;;;13.50;13.00;;;;;18.40;80.71;102314.50;5191228;27;43925;-72
2024/04/13 08:16:34;;;;;;;;;13.75;11.75;;;;;18.42;81.04;102302.66;5252084;27;44165;-72
2024/04/13 08:18:59;;;;;;;;;12.25;12.25;;;;;18.39;80.46;102283.84;5255326;27;43922;-72
2024/04/13 08:21:26;;;;;;;;;11.25;10.75;;;;;18.59;80.21;102303.78;5219818;27;43941;-72
2024/04/13 08:23:51;;;;;;;;;11.50;9.25;;;;;18.50;80.26;102287.00;5254894;27;44091;-72
2024/04/13 08:26:17;;;;;;;;;11.75;11.75;;;;;18.69;80.06;102303.38;5225027;27;43795;-72
2024/04/13 08:28:42;;;;;;;;;12.75;10.75;;;;;18.64;79.88;102294.56;5225062;27;45784;-72
2024/04/13 08:31:07;;;;;;;;;12.25;8.50;;;;;18.56;78.31;102268.75;5255727;27;43903;-72
2024/04/13 08:33:33;;;;;;;;;12.00;10.50;;;;;18.68;79.58;102277.25;5255398;27;43812;-72
2024/04/13 08:36:05;;;;;;;;;11.00;8.75;;;;;18.74;79.92;102272.50;5255463;27;44016;-72
2024/04/13 08:38:34;;;;;;;;;13.50;11.50;;;;;18.82;79.79;102284.75;5218943;27;47037;-72
2024/04/13 08:41:04;;;;;;;;;10.25;10.25;;;;;18.91;79.20;102274.53;5225446;27;44264;-72
2024/04/13 08:43:29;;;;;;;;;9.25;9.25;;;;;18.88;79.44;102256.63;5232441;27;43966;-72
2024/04/13 08:45:56;;;;;;;;;10.50;9.00;;;;;18.98;79.01;102257.97;5242807;27;44025;-72
2024/04/13 08:48:22;;;;;;;;;9.00;8.50;;;;;19.16;80.03;102277.94;5252625;27;44097;-72
2024/04/13 08:50:49;;;;;;;;;11.25;8.25;;;;;19.29;79.64;102286.38;5215157;27;44111;-72
2024/04/13 08:53:17;;;;;;;;;8.75;8.75;;;;;19.17;78.76;102258.03;5227112;27;43934;-72
2024/04/13 08:55:44;;;;;;;;;6.75;6.75;;;;;19.39;78.80;102274.19;5244913;27;43870;-72
2024/04/13 08:58:13;;;;;;;;;13.00;10.50;;;;;19.47;77.99;102278.38;5237919;27;45336;-72
2024/04/13 09:00:42;;;;;;;;;12.00;7.50;;;;;19.34;78.77;102235.59;5241739;27;44589;-72
2024/04/13 09:03:11;;;;;;;;;8.25;8.25;;;;;19.47;77.11;102254.88;5242768;27;43974;-72
2024/04/13 09:05:37;;;;;;;;;10.50;8.75;;;;;19.56;78.74;102254.47;5240171;27;44087;-72
2024/04/13 09:08:04;;;;;;;;;9.50;8.25;;;;;19.51;77.54;102234.84;5204339;27;45587;-72
2024/04/13 09:10:33;;;;;;;;;8.00;7.50;;;;;19.47;78.08;102216.97;5237747;27;45115;-72
2024/04/13 09:12:59;;;;;;;;;10.50;9.00;;;;;19.82;76.78;102260.53;5234650;27;44535;-72
2024/04/13 09:15:24;;;;;;;;;8.75;8.75;;;;;19.72;77.22;102232.09;5214447;27;44122;-72
2024/04/13 09:17:52;;;;;;;;;8.00;8.00;;;;;19.83;76.99;102235.22;5252375;27;44256;-72
2024/04/13 09:20:20;;;;;;;;;8.75;7.75;;;;;19.95;77.24;102231.88;5239296;27;44214;-72
2024/04/13 09:22:46;;;;;;;;;8.50;8.50;;;;;20.15;77.08;102252.59;5218662;27;43917;-72
2024/04/13 09:25:24;;;;;;;;;7.00;7.00;;;;;20.32;76.65;102264.47;5241748;27;44149;-72
2024/04/13 09:28:00;;;;;;;;;8.00;6.25;;;;;20.33;76.09;102247.22;5242517;27;44204;-72
2024/04/13 09:30:26;;;;;;;;;6.00;6.00;;;;;20.43;75.84;102239.50;5198842;27;44324;-73
2024/04/13 09:32:59;;;;;;;;;6.50;6.50;;;;;20.52;74.54;102239.94;5211554;27;43967;-72
2024/04/13 09:35:24;;;;;;;;;9.75;8.00;;;;;20.55;74.35;102222.63;5241156;27;43918;-75
2024/04/13 09:37:58;;;;;;;;;7.25;6.25;;;;;20.68;74.64;102244.59;5213785;27;44598;-75
2024/04/13 09:40:24;;;;;;;;;7.50;6.00;;;;;20.62;74.55;102218.63;5248300;27;43914;-78
2024/04/13 09:42:49;;;;;;;;;6.00;5.00;;;;;20.72;73.69;102228.09;5236484;27;43996;-76
2024/04/13 09:45:14;;;;;;;;;9.50;6.50;;;;;20.83;73.41;102224.84;5242735;27;44017;-73
2024/04/13 09:47:40;;;;;;;;;6.00;6.00;;;;;20.85;73.39;102214.78;5248453;27;43963;-74
2024/04/13 09:50:05;;;;;;;;;4.25;4.25;;;;;20.94;72.77;102213.41;5246808;27;44108;-71
2024/04/13 09:52:34;;;;;;;;;4.75;4.25;;;;;21.06;73.27;102223.59;5223587;27;44087;-72
2024/04/13 09:55:01;;;;;;;;;3.00;3.00;;;;;21.21;71.85;102219.19;5249787;27;43843;-73
2024/04/13 09:57:26;;;;;;;;;5.00;5.00;;;;;21.20;72.23;102202.97;5222854;27;46070;-73
2024/04/13 09:59:53;;;;;;;;;5.50;4.00;;;;;21.21;71.21;102202.88;5251607;27;45599;-73
2024/04/13 10:02:19;;;;;;;;;5.00;5.00;;;;;21.10;71.56;102181.75;5246817;27;44007;-73
2024/04/13 10:04:45;;;;;;;;;4.00;3.50;;;;;21.16;71.07;102182.38;5251634;27;44069;-72
2024/04/13 10:07:11;;;;;;;;;4.00;4.00;;;;;21.36;71.41;102208.47;5220182;27;45733;-72
2024/04/13 10:09:44;;;;;;;;;5.00;5.00;;;;;21.44;70.50;102207.06;5222018;27;44057;-72
2024/04/13 10:12:16;;;;;;;;;5.00;5.00;;;;;21.53;70.47;102204.84;5236249;27;43874;-73
2024/04/13 10:14:45;;;;;;;;;4.75;4.75;;;;;21.63;70.14;102206.06;5246136;27;43954;-72
2024/04/13 10:17:11;;;;;;;;;5.75;4.75;;;;;21.56;70.12;102180.22;5238196;27;44118;-72
2024/04/13 10:19:37;;;;;;;;;6.00;6.00;;;;;21.56;70.15;102170.22;5253717;27;43911;-73
2024/04/13 10:22:05;;;;;;;;;5.00;5.00;;;;;21.67;69.25;102163.31;5223000;27;43986;-72
2024/04/13 10:24:31;;;;;;;;;4.25;4.25;;;;;21.67;68.12;102138.84;5249880;27;43994;-73
2024/04/13 10:27:10;;;;;;;;;3.50;3.50;;;;;21.87;68.67;102168.50;5233013;27;44963;-72
2024/04/13 10:29:40;;;;;;;;;5.75;4.00;;;;;21.93;68.30;102159.09;5219782;27;44701;-72
2024/04/13 10:32:24;;;;;;;;;4.75;3.75;;;;;22.00;68.50;102150.50;5210744;27;43928;-72
2024/04/13 10:34:49;;;;;;;;;6.00;6.00;;;;;22.18;67.48;102166.69;5234694;27;44205;-72
2024/04/13 10:37:35;;;;;;;;;5.75;5.75;;;;;22.20;68.04;102154.78;5252239;27;44617;-73
2024/04/13 10:40:02;;;;;;;;;6.00;6.00;;;;;22.27;67.31;102162.53;5241747;27;44150;-72
2024/04/13 10:42:34;;;;;;;;;4.50;4.50;;;;;22.34;66.46;102164.00;5248794;27;43949;-73
2024/04/13 10:44:59;;;;;;;;;4.50;4.50;;;;;22.20;67.17;102129.41;5252279;27;44260;-73
2024/04/13 10:47:26;;;;;;;;;5.00;5.00;;;;;22.27;68.00;102133.53;5250589;27;44875;-72
2024/04/13 10:49:54;;;;;;;;;7.25;5.50;;;;;22.31;67.08;102120.66;5250416;27;43957;-73
2024/04/13 10:52:20;;;;;;;;;5.25;4.75;;;;;22.39;67.63;102134.66;5236759;27;43926;-73
2024/04/13 10:54:54;;;;;;;;;5.75;5.00;;;;;22.39;66.35;102110.19;5251600;27;44576;-72
2024/04/13 10:57:20;;;;;;;;;4.00;4.00;;;;;22.63;66.67;102128.69;5223415;27;46786;-73
2024/04/13 10:59:46;;;;;;;;;5.50;5.00;;;;;22.55;66.15;102107.38;5246133;27;44141;-73
2024/04/13 11:02:11;;;;;;;;;4.00;4.00;;;;;22.60;65.88;102093.50;5234570;27;43944;-72
2024/04/13 11:04:43;;;;;;;;;3.50;3.50;;;;;22.60;66.44;102099.81;5250120;27;44145;-72
2024/04/13 11:07:12;;;;;;;;;3.00;3.00;;;;;22.63;65.51;102094.19;5222350;27;46092;-72